sensor_id;sensor_type;location;lat;lon;timestamp;temperature;humidity
37956;DHT22;23776;51.592;7.180;2023-03-14T00:00:21;12.20;1.00
37956;DHT22;23776;51.592;7.180;2023-03-14T00:02:52;12.20;99.90
37956;DHT22;23776;51.592;7.180;2023-03-14T00:05:18;12.30;99.90
37956;DHT22;23776;51.592;7.180;2023-03-14T00:07:44;12.20;99.90
37956;DHT22;23776;51.592;7.180;2023-03-14T00:10:11;12.10;99.90
37956;DHT22;23776;51.592;7.180;2023-03-14T00:12:38;12.10;99.90
37956;DHT22;23776;51.592;7.180;2023-03-14T00:15:04;12.10;99.90
37956;DHT22;23776;51.592;7.180;2023-03-14T00:17:34;12.10;99.90
37956;DHT22;23776;51.592;7.180;2023-03-14T00:20:00;12.00;99.90
37956;DHT22;23776;51.592;7.180;2023-03-14T00:22:31;12.00;99.90
37956;DHT22;23776;51.592;7.180;2023-03-14T00:24:57;12.00;99.90
37956;DHT22;23776;51.592;7.180;2023-03-14T00:27:24;12.00;99.90
37956;DHT22;23776;51.592;7.180;2023-03-14T00:29:49;12.00;99.90
37956;DHT22;23776;51.592;7.180;2023-03-14T00:32:15;12.00;99.90
37956;DHT22;23776;51.592;7.180;2023-03-14T00:34:40;12.00;99.90
37956;DHT22;23776;51.592;7.180;2023-03-14T00:37:06;12.00;99.90
37956;DHT22;23776;51.592;7.180;2023-03-14T00:39:32;12.00;99.90
37956;DHT22;23776;51.592;7.180;2023-03-14T00:41:57;12.00;99.90
37956;DHT22;23776;51.592;7.180;2023-03-14T00:44:23;12.00;99.90
37956;DHT22;23776;51.592;7.180;2023-03-14T00:46:49;12.00;99.90
37956;DHT22;23776;51.592;7.180;2023-03-14T00:49:15;12.00;99.90
37956;DHT22;23776;51.592;7.180;2023-03-14T00:51:41;12.00;99.90
37956;DHT22;23776;51.592;7.180;2023-03-14T00:54:06;12.10;99.90
37956;DHT22;23776;51.592;7.180;2023-03-14T00:56:32;12.10;99.90
37956;DHT22;23776;51.592;7.180;2023-03-14T00:58:58;12.20;66.30
37956;DHT22;23776;51.592;7.180;2023-03-14T01:01:23;12.20;1.00
37956;DHT22;23776;51.592;7.180;2023-03-14T01:03:53;12.30;1.00
37956;DHT22;23776;51.592;7.180;2023-03-14T01:06:25;12.30;99.90
37956;DHT22;23776;51.592;7.180;2023-03-14T01:08:51;12.10;99.90
37956;DHT22;23776;51.592;7.180;2023-03-14T01:11:22;12.50;1.00
37956;DHT22;23776;51.592;7.180;2023-03-14T01:13:49;11.50;1.00
37956;DHT22;23776;51.592;7.180;2023-03-14T01:16:15;11.10;9.00
37956;DHT22;23776;51.592;7.180;2023-03-14T01:18:44;10.90;26.70
37956;DHT22;23776;51.592;7.180;2023-03-14T01:21:26;10.70;38.00
37956;DHT22;23776;51.592;7.180;2023-03-14T01:23:54;10.50;49.70
37956;DHT22;23776;51.592;7.180;2023-03-14T01:26:22;10.40;61.50
37956;DHT22;23776;51.592;7.180;2023-03-14T01:28:48;10.30;61.60
37956;DHT22;23776;51.592;7.180;2023-03-14T01:31:14;10.20;68.60
37956;DHT22;23776;51.592;7.180;2023-03-14T01:33:40;10.20;72.50
37956;DHT22;23776;51.592;7.180;2023-03-14T01:36:06;10.10;71.50
37956;DHT22;23776;51.592;7.180;2023-03-14T01:38:33;10.00;71.00
37956;DHT22;23776;51.592;7.180;2023-03-14T01:40:59;10.00;68.00
37956;DHT22;23776;51.592;7.180;2023-03-14T01:43:25;9.90;66.60
37956;DHT22;23776;51.592;7.180;2023-03-14T01:48:51;9.80;69.50
37956;DHT22;23776;51.592;7.180;2023-03-14T01:51:38;9.80;70.90
37956;DHT22;23776;51.592;7.180;2023-03-14T01:59:35;9.90;68.80
37956;DHT22;23776;51.592;7.180;2023-03-14T02:02:03;9.90;65.50
37956;DHT22;23776;51.592;7.180;2023-03-14T02:04:33;9.80;65.10
37956;DHT22;23776;51.592;7.180;2023-03-14T02:07:45;9.90;65.40
37956;DHT22;23776;51.592;7.180;2023-03-14T02:09:52;9.80;65.80
37956;DHT22;23776;51.592;7.180;2023-03-14T02:12:20;9.80;67.30
37956;DHT22;23776;51.592;7.180;2023-03-14T02:14:46;9.80;66.90
37956;DHT22;23776;51.592;7.180;2023-03-14T02:17:15;9.90;63.00
37956;DHT22;23776;51.592;7.180;2023-03-14T02:22:16;10.00;55.70
37956;DHT22;23776;51.592;7.180;2023-03-14T02:27:26;10.00;42.10
37956;DHT22;23776;51.592;7.180;2023-03-14T02:29:56;11.00;41.10
37956;DHT22;23776;51.592;7.180;2023-03-14T02:32:24;10.00;40.90
37956;DHT22;23776;51.592;7.180;2023-03-14T02:34:54;10.00;41.50
37956;DHT22;23776;51.592;7.180;2023-03-14T02:37:23;10.10;33.30
37956;DHT22;23776;51.592;7.180;2023-03-14T02:39:49;10.10;29.20
37956;DHT22;23776;51.592;7.180;2023-03-14T02:42:15;10.10;29.40
37956;DHT22;23776;51.592;7.180;2023-03-14T02:47:58;10.20;18.00
37956;DHT22;23776;51.592;7.180;2023-03-14T02:50:29;10.20;18.10
37956;DHT22;23776;51.592;7.180;2023-03-14T02:52:56;10.20;13.20
37956;DHT22;23776;51.592;7.180;2023-03-14T02:55:22;10.20;11.80
37956;DHT22;23776;51.592;7.180;2023-03-14T02:57:48;10.20;12.30
37956;DHT22;23776;51.592;7.180;2023-03-14T03:00:14;10.20;12.10
37956;DHT22;23776;51.592;7.180;2023-03-14T03:02:40;10.30;10.00
37956;DHT22;23776;51.592;7.180;2023-03-14T03:05:06;10.30;9.20
37956;DHT22;23776;51.592;7.180;2023-03-14T03:07:31;10.20;13.00
37956;DHT22;23776;51.592;7.180;2023-03-14T03:09:57;10.20;12.90
37956;DHT22;23776;51.592;7.180;2023-03-14T03:12:22;10.20;11.00
37956;DHT22;23776;51.592;7.180;2023-03-14T03:14:48;10.10;10.70
37956;DHT22;23776;51.592;7.180;2023-03-14T03:17:14;10.10;14.30
37956;DHT22;23776;51.592;7.180;2023-03-14T03:19:39;10.10;12.40
37956;DHT22;23776;51.592;7.180;2023-03-14T03:22:05;10.10;8.30
37956;DHT22;23776;51.592;7.180;2023-03-14T03:24:31;10.10;6.20
37956;DHT22;23776;51.592;7.180;2023-03-14T03:26:56;10.10;3.10
37956;DHT22;23776;51.592;7.180;2023-03-14T03:29:22;10.10;4.60
37956;DHT22;23776;51.592;7.180;2023-03-14T03:31:48;10.10;1.00
37956;DHT22;23776;51.592;7.180;2023-03-14T03:34:14;10.10;1.00
37956;DHT22;23776;51.592;7.180;2023-03-14T03:36:40;10.10;1.00
37956;DHT22;23776;51.592;7.180;2023-03-14T03:39:06;10.30;1.00
37956;DHT22;23776;51.592;7.180;2023-03-14T03:41:32;10.20;1.00
37956;DHT22;23776;51.592;7.180;2023-03-14T03:43:58;10.30;1.00
37956;DHT22;23776;51.592;7.180;2023-03-14T03:46:23;10.30;1.00
37956;DHT22;23776;51.592;7.180;2023-03-14T03:48:54;10.30;1.00
37956;DHT22;23776;51.592;7.180;2023-03-14T03:51:20;10.30;1.00
37956;DHT22;23776;51.592;7.180;2023-03-14T03:53:45;10.30;1.00
37956;DHT22;23776;51.592;7.180;2023-03-14T03:56:11;10.40;1.00
37956;DHT22;23776;51.592;7.180;2023-03-14T03:58:37;10.40;1.00
37956;DHT22;23776;51.592;7.180;2023-03-14T04:01:05;10.40;1.00
37956;DHT22;23776;51.592;7.180;2023-03-14T04:03:32;10.40;1.00
37956;DHT22;23776;51.592;7.180;2023-03-14T04:06:02;10.40;1.00
37956;DHT22;23776;51.592;7.180;2023-03-14T04:08:28;10.40;1.00
37956;DHT22;23776;51.592;7.180;2023-03-14T04:10:59;10.40;1.00
37956;DHT22;23776;51.592;7.180;2023-03-14T04:13:26;10.40;1.00
37956;DHT22;23776;51.592;7.180;2023-03-14T04:15:53;10.40;1.00
37956;DHT22;23776;51.592;7.180;2023-03-14T04:18:19;10.40;1.00
37956;DHT22;23776;51.592;7.180;2023-03-14T04:20:45;10.40;1.00
37956;DHT22;23776;51.592;7.180;2023-03-14T04:23:10;10.40;1.00
37956;DHT22;23776;51.592;7.180;2023-03-14T04:25:36;10.30;1.00
37956;DHT22;23776;51.592;7.180;2023-03-14T04:28:02;10.30;1.00
37956;DHT22;23776;51.592;7.180;2023-03-14T04:30:29;10.20;1.00
37956;DHT22;23776;51.592;7.180;2023-03-14T04:32:55;10.20;1.00
37956;DHT22;23776;51.592;7.180;2023-03-14T04:35:20;10.20;1.00
37956;DHT22;23776;51.592;7.180;2023-03-14T04:37:46;10.20;1.00
37956;DHT22;23776;51.592;7.180;2023-03-14T04:40:14;10.20;1.00
37956;DHT22;23776;51.592;7.180;2023-03-14T04:42:40;10.20;1.00
37956;DHT22;23776;51.592;7.180;2023-03-14T04:45:06;10.20;1.00
37956;DHT22;23776;51.592;7.180;2023-03-14T04:47:32;10.20;1.00
37956;DHT22;23776;51.592;7.180;2023-03-14T04:49:58;10.00;14.00
37956;DHT22;23776;51.592;7.180;2023-03-14T04:52:24;11.50;20.20
37956;DHT22;23776;51.592;7.180;2023-03-14T04:54:49;9.80;21.80
37956;DHT22;23776;51.592;7.180;2023-03-14T04:57:15;9.50;36.20
37956;DHT22;23776;51.592;7.180;2023-03-14T04:59:40;9.50;48.20
37956;DHT22;23776;51.592;7.180;2023-03-14T05:02:06;11.50;50.60
37956;DHT22;23776;51.592;7.180;2023-03-14T05:04:32;9.40;55.60
37956;DHT22;23776;51.592;7.180;2023-03-14T05:06:59;9.30;60.30
37956;DHT22;23776;51.592;7.180;2023-03-14T05:09:25;9.20;66.30
37956;DHT22;23776;51.592;7.180;2023-03-14T05:11:51;9.10;74.90
37956;DHT22;23776;51.592;7.180;2023-03-14T05:14:16;9.00;81.90
37956;DHT22;23776;51.592;7.180;2023-03-14T05:16:42;8.90;84.10
37956;DHT22;23776;51.592;7.180;2023-03-14T05:19:08;8.90;87.10
37956;DHT22;23776;51.592;7.180;2023-03-14T05:21:33;8.80;89.70
37956;DHT22;23776;51.592;7.180;2023-03-14T05:23:59;8.80;90.70
37956;DHT22;23776;51.592;7.180;2023-03-14T05:26:24;8.80;91.40
37956;DHT22;23776;51.592;7.180;2023-03-14T05:28:50;8.80;92.20
37956;DHT22;23776;51.592;7.180;2023-03-14T05:31:16;8.70;92.70
37956;DHT22;23776;51.592;7.180;2023-03-14T05:33:42;8.70;93.30
37956;DHT22;23776;51.592;7.180;2023-03-14T05:36:08;8.60;93.20
37956;DHT22;23776;51.592;7.180;2023-03-14T05:38:33;8.70;93.70
37956;DHT22;23776;51.592;7.180;2023-03-14T05:40:59;8.70;94.30
37956;DHT22;23776;51.592;7.180;2023-03-14T05:43:25;8.70;94.00
37956;DHT22;23776;51.592;7.180;2023-03-14T05:45:50;8.70;94.50
37956;DHT22;23776;51.592;7.180;2023-03-14T05:48:16;8.60;95.20
37956;DHT22;23776;51.592;7.180;2023-03-14T05:50:42;8.60;95.60
37956;DHT22;23776;51.592;7.180;2023-03-14T05:53:08;8.60;95.90
37956;DHT22;23776;51.592;7.180;2023-03-14T05:55:33;8.60;95.80
37956;DHT22;23776;51.592;7.180;2023-03-14T05:57:59;8.60;96.50
37956;DHT22;23776;51.592;7.180;2023-03-14T06:00:25;8.60;96.70
37956;DHT22;23776;51.592;7.180;2023-03-14T06:02:50;8.60;96.90
37956;DHT22;23776;51.592;7.180;2023-03-14T06:05:16;8.60;97.40
37956;DHT22;23776;51.592;7.180;2023-03-14T06:07:42;8.70;97.30
37956;DHT22;23776;51.592;7.180;2023-03-14T06:10:08;8.60;97.70
37956;DHT22;23776;51.592;7.180;2023-03-14T06:12:34;8.60;97.70
37956;DHT22;23776;51.592;7.180;2023-03-14T06:14:59;8.70;97.90
37956;DHT22;23776;51.592;7.180;2023-03-14T06:17:25;8.70;97.60
37956;DHT22;23776;51.592;7.180;2023-03-14T06:19:51;8.60;98.00
37956;DHT22;23776;51.592;7.180;2023-03-14T06:22:16;8.70;98.30
37956;DHT22;23776;51.592;7.180;2023-03-14T06:24:42;8.70;98.50
37956;DHT22;23776;51.592;7.180;2023-03-14T06:27:08;8.70;98.60
37956;DHT22;23776;51.592;7.180;2023-03-14T06:29:33;8.70;99.10
37956;DHT22;23776;51.592;7.180;2023-03-14T06:31:59;8.70;99.10
37956;DHT22;23776;51.592;7.180;2023-03-14T06:34:25;8.80;99.30
37956;DHT22;23776;51.592;7.180;2023-03-14T06:36:51;8.80;99.60
37956;DHT22;23776;51.592;7.180;2023-03-14T06:39:16;8.80;99.40
37956;DHT22;23776;51.592;7.180;2023-03-14T06:41:42;8.90;99.40
37956;DHT22;23776;51.592;7.180;2023-03-14T06:44:08;8.90;99.10
37956;DHT22;23776;51.592;7.180;2023-03-14T06:46:34;8.10;99.30
37956;DHT22;23776;51.592;7.180;2023-03-14T06:48:59;9.00;99.40
37956;DHT22;23776;51.592;7.180;2023-03-14T06:51:25;9.00;99.30
37956;DHT22;23776;51.592;7.180;2023-03-14T06:53:51;9.10;99.40
37956;DHT22;23776;51.592;7.180;2023-03-14T06:56:16;9.10;99.00
37956;DHT22;23776;51.592;7.180;2023-03-14T06:58:42;9.10;99.40
37956;DHT22;23776;51.592;7.180;2023-03-14T07:01:23;9.10;99.70
37956;DHT22;23776;51.592;7.180;2023-03-14T07:03:49;9.10;99.30
37956;DHT22;23776;51.592;7.180;2023-03-14T07:06:15;9.10;99.60
37956;DHT22;23776;51.592;7.180;2023-03-14T07:08:40;9.20;99.60
37956;DHT22;23776;51.592;7.180;2023-03-14T07:11:07;9.20;99.80
37956;DHT22;23776;51.592;7.180;2023-03-14T07:13:33;9.20;99.70
37956;DHT22;23776;51.592;7.180;2023-03-14T07:16:05;9.20;99.90
37956;DHT22;23776;51.592;7.180;2023-03-14T07:18:31;9.30;99.80
37956;DHT22;23776;51.592;7.180;2023-03-14T07:20:57;9.30;99.60
37956;DHT22;23776;51.592;7.180;2023-03-14T07:23:22;9.40;99.40
37956;DHT22;23776;51.592;7.180;2023-03-14T07:25:48;9.40;99.80
37956;DHT22;23776;51.592;7.180;2023-03-14T07:28:14;9.50;99.60
37956;DHT22;23776;51.592;7.180;2023-03-14T07:30:39;9.50;99.70
37956;DHT22;23776;51.592;7.180;2023-03-14T07:33:05;9.50;99.40
37956;DHT22;23776;51.592;7.180;2023-03-14T07:35:30;9.60;98.70
37956;DHT22;23776;51.592;7.180;2023-03-14T07:37:56;9.60;98.50
37956;DHT22;23776;51.592;7.180;2023-03-14T07:40:21;9.60;98.10
37956;DHT22;23776;51.592;7.180;2023-03-14T07:42:47;9.60;97.70
37956;DHT22;23776;51.592;7.180;2023-03-14T07:45:13;9.70;98.10
37956;DHT22;23776;51.592;7.180;2023-03-14T07:47:39;9.70;98.40
37956;DHT22;23776;51.592;7.180;2023-03-14T07:50:05;9.70;98.10
37956;DHT22;23776;51.592;7.180;2023-03-14T07:52:30;9.80;98.10
37956;DHT22;23776;51.592;7.180;2023-03-14T07:54:56;9.80;98.00
37956;DHT22;23776;51.592;7.180;2023-03-14T07:57:22;9.80;97.80
37956;DHT22;23776;51.592;7.180;2023-03-14T07:59:47;9.80;97.40
37956;DHT22;23776;51.592;7.180;2023-03-14T08:02:13;9.80;97.10
37956;DHT22;23776;51.592;7.180;2023-03-14T08:04:40;9.80;96.40
37956;DHT22;23776;51.592;7.180;2023-03-14T08:07:06;9.80;96.30
37956;DHT22;23776;51.592;7.180;2023-03-14T08:09:32;9.80;96.60
37956;DHT22;23776;51.592;7.180;2023-03-14T08:11:57;9.80;96.90
37956;DHT22;23776;51.592;7.180;2023-03-14T08:14:23;9.80;97.50
37956;DHT22;23776;51.592;7.180;2023-03-14T08:16:51;9.90;97.10
37956;DHT22;23776;51.592;7.180;2023-03-14T08:19:17;9.90;97.00
37956;DHT22;23776;51.592;7.180;2023-03-14T08:21:43;9.90;97.40
37956;DHT22;23776;51.592;7.180;2023-03-14T08:24:09;10.00;97.10
37956;DHT22;23776;51.592;7.180;2023-03-14T08:26:34;9.90;97.20
37956;DHT22;23776;51.592;7.180;2023-03-14T08:29:00;10.00;97.50
37956;DHT22;23776;51.592;7.180;2023-03-14T08:31:26;10.00;97.10
37956;DHT22;23776;51.592;7.180;2023-03-14T08:33:52;10.00;96.80
37956;DHT22;23776;51.592;7.180;2023-03-14T08:36:19;10.10;97.10
37956;DHT22;23776;51.592;7.180;2023-03-14T08:38:44;10.10;97.20
37956;DHT22;23776;51.592;7.180;2023-03-14T08:41:10;10.10;96.40
37956;DHT22;23776;51.592;7.180;2023-03-14T08:43:36;10.20;96.90
37956;DHT22;23776;51.592;7.180;2023-03-14T08:46:02;10.20;96.70
37956;DHT22;23776;51.592;7.180;2023-03-14T08:48:29;10.30;96.40
37956;DHT22;23776;51.592;7.180;2023-03-14T08:50:56;10.40;95.50
37956;DHT22;23776;51.592;7.180;2023-03-14T08:53:22;10.40;95.00
37956;DHT22;23776;51.592;7.180;2023-03-14T08:55:53;10.30;95.40
37956;DHT22;23776;51.592;7.180;2023-03-14T08:58:19;10.40;95.90
37956;DHT22;23776;51.592;7.180;2023-03-14T09:00:44;10.40;95.00
37956;DHT22;23776;51.592;7.180;2023-03-14T09:03:10;10.40;95.50
37956;DHT22;23776;51.592;7.180;2023-03-14T09:05:35;10.40;96.70
37956;DHT22;23776;51.592;7.180;2023-03-14T09:08:01;10.20;97.30
37956;DHT22;23776;51.592;7.180;2023-03-14T09:10:27;10.10;99.00
37956;DHT22;23776;51.592;7.180;2023-03-14T09:12:52;10.00;99.40
37956;DHT22;23776;51.592;7.180;2023-03-14T09:15:18;10.00;99.90
37956;DHT22;23776;51.592;7.180;2023-03-14T09:17:44;10.00;99.90
37956;DHT22;23776;51.592;7.180;2023-03-14T09:20:10;10.10;99.90
37956;DHT22;23776;51.592;7.180;2023-03-14T09:22:36;10.10;99.90
37956;DHT22;23776;51.592;7.180;2023-03-14T09:25:03;9.90;99.90
37956;DHT22;23776;51.592;7.180;2023-03-14T09:27:28;9.90;99.90
37956;DHT22;23776;51.592;7.180;2023-03-14T09:29:54;10.00;99.90
37956;DHT22;23776;51.592;7.180;2023-03-14T09:32:19;9.90;99.90
37956;DHT22;23776;51.592;7.180;2023-03-14T09:34:45;9.90;99.90
37956;DHT22;23776;51.592;7.180;2023-03-14T09:37:11;9.70;93.40
37956;DHT22;23776;51.592;7.180;2023-03-14T09:39:36;9.10;75.10
37956;DHT22;23776;51.592;7.180;2023-03-14T09:42:04;8.90;87.20
37956;DHT22;23776;51.592;7.180;2023-03-14T09:44:33;8.80;87.50
37956;DHT22;23776;51.592;7.180;2023-03-14T09:47:18;8.50;84.30
37956;DHT22;23776;51.592;7.180;2023-03-14T09:49:45;8.30;91.60
37956;DHT22;23776;51.592;7.180;2023-03-14T09:54:46;8.20;94.40
37956;DHT22;23776;51.592;7.180;2023-03-14T09:57:15;8.30;93.70
37956;DHT22;23776;51.592;7.180;2023-03-14T09:59:44;8.30;94.10
37956;DHT22;23776;51.592;7.180;2023-03-14T10:04:44;8.20;95.40
37956;DHT22;23776;51.592;7.180;2023-03-14T10:07:15;8.30;95.60
37956;DHT22;23776;51.592;7.180;2023-03-14T10:09:43;8.30;95.50
37956;DHT22;23776;51.592;7.180;2023-03-14T10:12:10;8.10;92.90
37956;DHT22;23776;51.592;7.180;2023-03-14T10:14:38;8.10;94.30
37956;DHT22;23776;51.592;7.180;2023-03-14T10:17:10;8.10;93.80
37956;DHT22;23776;51.592;7.180;2023-03-14T10:19:37;8.00;90.90
37956;DHT22;23776;51.592;7.180;2023-03-14T10:22:05;7.90;91.20
37956;DHT22;23776;51.592;7.180;2023-03-14T10:24:36;7.90;91.60
37956;DHT22;23776;51.592;7.180;2023-03-14T10:27:05;7.80;91.90
37956;DHT22;23776;51.592;7.180;2023-03-14T10:29:33;7.80;93.00
37956;DHT22;23776;51.592;7.180;2023-03-14T10:32:02;7.80;92.80
37956;DHT22;23776;51.592;7.180;2023-03-14T10:34:30;7.80;91.30
37956;DHT22;23776;51.592;7.180;2023-03-14T10:40:03;7.70;93.20
37956;DHT22;23776;51.592;7.180;2023-03-14T10:42:39;7.70;92.60
37956;DHT22;23776;51.592;7.180;2023-03-14T10:45:15;7.70;85.60
37956;DHT22;23776;51.592;7.180;2023-03-14T10:47:51;7.60;81.50
37956;DHT22;23776;51.592;7.180;2023-03-14T10:50:26;7.50;69.10
37956;DHT22;23776;51.592;7.180;2023-03-14T10:52:53;7.40;67.10
37956;DHT22;23776;51.592;7.180;2023-03-14T10:55:19;7.30;46.50
37956;DHT22;23776;51.592;7.180;2023-03-14T10:57:45;7.20;54.80
37956;DHT22;23776;51.592;7.180;2023-03-14T11:00:17;7.10;58.20
37956;DHT22;23776;51.592;7.180;2023-03-14T11:02:53;7.10;63.00
37956;DHT22;23776;51.592;7.180;2023-03-14T11:11:06;7.40;49.80
37956;DHT22;23776;51.592;7.180;2023-03-14T11:13:41;7.40;34.70
37956;DHT22;23776;51.592;7.180;2023-03-14T11:16:31;7.40;38.90
37956;DHT22;23776;51.592;7.180;2023-03-14T11:19:17;7.40;39.00
37956;DHT22;23776;51.592;7.180;2023-03-14T11:22:05;7.60;44.00
37956;DHT22;23776;51.592;7.180;2023-03-14T11:24:54;7.70;28.70
37956;DHT22;23776;51.592;7.180;2023-03-14T11:27:25;7.80;1.00
37956;DHT22;23776;51.592;7.180;2023-03-14T11:30:00;7.80;1.00
37956;DHT22;23776;51.592;7.180;2023-03-14T11:35:08;7.90;12.40
37956;DHT22;23776;51.592;7.180;2023-03-14T11:37:47;7.80;3.10
37956;DHT22;23776;51.592;7.180;2023-03-14T11:40:20;7.60;1.00
37956;DHT22;23776;51.592;7.180;2023-03-14T11:42:51;7.50;1.00
37956;DHT22;23776;51.592;7.180;2023-03-14T11:45:20;7.50;1.00
37956;DHT22;23776;51.592;7.180;2023-03-14T11:48:01;7.40;1.00
37956;DHT22;23776;51.592;7.180;2023-03-14T11:50:30;7.70;1.00
37956;DHT22;23776;51.592;7.180;2023-03-14T11:53:03;7.80;1.00
37956;DHT22;23776;51.592;7.180;2023-03-14T11:55:35;7.80;1.00
37956;DHT22;23776;51.592;7.180;2023-03-14T11:58:12;7.80;1.00
37956;DHT22;23776;51.592;7.180;2023-03-14T12:00:40;7.70;1.00
37956;DHT22;23776;51.592;7.180;2023-03-14T12:06:02;7.70;1.00
37956;DHT22;23776;51.592;7.180;2023-03-14T12:08:41;7.50;1.00
37956;DHT22;23776;51.592;7.180;2023-03-14T12:11:56;7.50;1.50
37956;DHT22;23776;51.592;7.180;2023-03-14T12:14:14;7.50;15.30
37956;DHT22;23776;51.592;7.180;2023-03-14T12:16:46;7.40;15.70
37956;DHT22;23776;51.592;7.180;2023-03-14T12:19:24;7.40;29.70
37956;DHT22;23776;51.592;7.180;2023-03-14T12:22:19;7.20;22.70
37956;DHT22;23776;51.592;7.180;2023-03-14T12:24:51;7.30;24.80
37956;DHT22;23776;51.592;7.180;2023-03-14T12:30:15;7.80;15.50
37956;DHT22;23776;51.592;7.180;2023-03-14T12:32:42;8.00;18.80
37956;DHT22;23776;51.592;7.180;2023-03-14T12:35:34;8.20;10.60
37956;DHT22;23776;51.592;7.180;2023-03-14T12:38:04;8.20;1.00
37956;DHT22;23776;51.592;7.180;2023-03-14T12:43:32;8.30;1.00
37956;DHT22;23776;51.592;7.180;2023-03-14T12:48:45;7.90;1.00
37956;DHT22;23776;51.592;7.180;2023-03-14T12:51:35;7.50;1.00
37956;DHT22;23776;51.592;7.180;2023-03-14T12:59:54;6.70;26.70
37956;DHT22;23776;51.592;7.180;2023-03-14T13:02:27;6.50;34.50
37956;DHT22;23776;51.592;7.180;2023-03-14T13:07:32;6.40;47.50
37956;DHT22;23776;51.592;7.180;2023-03-14T13:15:34;6.70;42.40
37956;DHT22;23776;51.592;7.180;2023-03-14T13:18:14;6.80;51.40
37956;DHT22;23776;51.592;7.180;2023-03-14T13:20:54;6.80;48.20
37956;DHT22;23776;51.592;7.180;2023-03-14T13:23:26;6.80;51.10
37956;DHT22;23776;51.592;7.180;2023-03-14T13:25:52;6.80;51.90
37956;DHT22;23776;51.592;7.180;2023-03-14T13:28:18;6.80;51.50
37956;DHT22;23776;51.592;7.180;2023-03-14T13:30:46;6.70;45.20
37956;DHT22;23776;51.592;7.180;2023-03-14T13:33:18;6.60;43.70
37956;DHT22;23776;51.592;7.180;2023-03-14T13:35:48;6.60;46.30
37956;DHT22;23776;51.592;7.180;2023-03-14T13:38:23;6.60;57.00
37956;DHT22;23776;51.592;7.180;2023-03-14T13:40:50;6.80;45.20
37956;DHT22;23776;51.592;7.180;2023-03-14T13:45:56;7.30;45.30
37956;DHT22;23776;51.592;7.180;2023-03-14T13:48:26;7.60;19.60
37956;DHT22;23776;51.592;7.180;2023-03-14T13:51:06;7.80;6.00
37956;DHT22;23776;51.592;7.180;2023-03-14T13:53:46;8.10;1.00
37956;DHT22;23776;51.592;7.180;2023-03-14T13:56:12;8.40;1.00
37956;DHT22;23776;51.592;7.180;2023-03-14T13:58:39;8.80;1.00
37956;DHT22;23776;51.592;7.180;2023-03-14T14:03:54;9.40;1.00
37956;DHT22;23776;51.592;7.180;2023-03-14T14:08:53;9.90;1.00
37956;DHT22;23776;51.592;7.180;2023-03-14T14:14:06;10.40;59.40
37956;DHT22;23776;51.592;7.180;2023-03-14T14:16:34;10.30;99.90
37956;DHT22;23776;51.592;7.180;2023-03-14T14:19:01;10.50;1.00
37956;DHT22;23776;51.592;7.180;2023-03-14T14:21:27;10.50;99.90
37956;DHT22;23776;51.592;7.180;2023-03-14T14:23:53;10.50;1.00
37956;DHT22;23776;51.592;7.180;2023-03-14T14:26:19;10.40;99.90
37956;DHT22;23776;51.592;7.180;2023-03-14T14:28:45;10.30;1.00
37956;DHT22;23776;51.592;7.180;2023-03-14T14:33:45;11.10;99.90
37956;DHT22;23776;51.592;7.180;2023-03-14T14:36:30;10.50;99.90
37956;DHT22;23776;51.592;7.180;2023-03-14T14:41:39;11.20;90.70
37956;DHT22;23776;51.592;7.180;2023-03-14T14:44:07;11.40;1.00
37956;DHT22;23776;51.592;7.180;2023-03-14T14:46:35;11.40;1.00
37956;DHT22;23776;51.592;7.180;2023-03-14T14:49:17;11.60;99.90
37956;DHT22;23776;51.592;7.180;2023-03-14T14:51:48;11.80;99.90
37956;DHT22;23776;51.592;7.180;2023-03-14T14:54:15;11.90;1.00
37956;DHT22;23776;51.592;7.180;2023-03-14T14:56:50;11.80;99.90
37956;DHT22;23776;51.592;7.180;2023-03-14T14:59:22;11.70;99.90
37956;DHT22;23776;51.592;7.180;2023-03-14T15:01:47;11.50;99.90
37956;DHT22;23776;51.592;7.180;2023-03-14T15:04:14;11.60;99.90
37956;DHT22;23776;51.592;7.180;2023-03-14T15:06:43;12.00;99.90
37956;DHT22;23776;51.592;7.180;2023-03-14T15:09:10;12.40;99.90
37956;DHT22;23776;51.592;7.180;2023-03-14T15:11:37;13.00;99.90
37956;DHT22;23776;51.592;7.180;2023-03-14T15:14:02;12.80;99.90
37956;DHT22;23776;51.592;7.180;2023-03-14T15:16:31;12.60;99.90
37956;DHT22;23776;51.592;7.180;2023-03-14T15:19:02;12.30;99.90
37956;DHT22;23776;51.592;7.180;2023-03-14T15:21:32;12.40;99.90
37956;DHT22;23776;51.592;7.180;2023-03-14T15:23:58;12.50;99.90
37956;DHT22;23776;51.592;7.180;2023-03-14T15:26:26;12.70;99.90
37956;DHT22;23776;51.592;7.180;2023-03-14T15:28:52;12.90;99.90
37956;DHT22;23776;51.592;7.180;2023-03-14T15:31:19;13.10;99.90
37956;DHT22;23776;51.592;7.180;2023-03-14T15:33:46;13.10;99.90
37956;DHT22;23776;51.592;7.180;2023-03-14T15:36:25;12.80;99.90
37956;DHT22;23776;51.592;7.180;2023-03-14T15:38:54;12.50;99.90
37956;DHT22;23776;51.592;7.180;2023-03-14T15:41:20;12.10;99.90
37956;DHT22;23776;51.592;7.180;2023-03-14T15:43:47;11.80;99.90
37956;DHT22;23776;51.592;7.180;2023-03-14T15:46:13;12.20;99.90
37956;DHT22;23776;51.592;7.180;2023-03-14T15:48:40;12.10;99.90
37956;DHT22;23776;51.592;7.180;2023-03-14T15:51:06;11.90;99.90
37956;DHT22;23776;51.592;7.180;2023-03-14T15:53:32;11.00;99.90
37956;DHT22;23776;51.592;7.180;2023-03-14T15:55:58;10.00;99.90
37956;DHT22;23776;51.592;7.180;2023-03-14T15:58:24;9.40;99.90
37956;DHT22;23776;51.592;7.180;2023-03-14T16:00:50;8.90;99.90
37956;DHT22;23776;51.592;7.180;2023-03-14T16:03:16;8.70;99.90
37956;DHT22;23776;51.592;7.180;2023-03-14T16:05:42;8.60;99.90
37956;DHT22;23776;51.592;7.180;2023-03-14T16:08:08;8.50;99.90
37956;DHT22;23776;51.592;7.180;2023-03-14T16:10:34;8.60;99.90
37956;DHT22;23776;51.592;7.180;2023-03-14T16:12:59;8.40;99.90
37956;DHT22;23776;51.592;7.180;2023-03-14T16:15:26;8.50;99.90
37956;DHT22;23776;51.592;7.180;2023-03-14T16:17:53;8.40;99.90
37956;DHT22;23776;51.592;7.180;2023-03-14T16:20:19;8.00;99.90
37956;DHT22;23776;51.592;7.180;2023-03-14T16:22:46;8.00;99.90
37956;DHT22;23776;51.592;7.180;2023-03-14T16:25:12;8.00;99.90
37956;DHT22;23776;51.592;7.180;2023-03-14T16:27:38;7.90;99.90
37956;DHT22;23776;51.592;7.180;2023-03-14T16:30:05;7.90;99.90
37956;DHT22;23776;51.592;7.180;2023-03-14T16:32:30;8.00;99.90
37956;DHT22;23776;51.592;7.180;2023-03-14T16:34:57;8.00;99.90
37956;DHT22;23776;51.592;7.180;2023-03-14T16:37:23;7.90;99.90
37956;DHT22;23776;51.592;7.180;2023-03-14T16:39:50;7.90;99.90
37956;DHT22;23776;51.592;7.180;2023-03-14T16:42:16;7.80;99.90
37956;DHT22;23776;51.592;7.180;2023-03-14T16:44:42;7.90;99.90
37956;DHT22;23776;51.592;7.180;2023-03-14T16:47:07;7.60;99.90
37956;DHT22;23776;51.592;7.180;2023-03-14T16:49:33;7.50;99.90
37956;DHT22;23776;51.592;7.180;2023-03-14T16:51:59;7.50;99.90
37956;DHT22;23776;51.592;7.180;2023-03-14T16:54:24;7.50;99.90
37956;DHT22;23776;51.592;7.180;2023-03-14T16:56:50;7.40;99.90
37956;DHT22;23776;51.592;7.180;2023-03-14T16:59:19;7.40;99.90
37956;DHT22;23776;51.592;7.180;2023-03-14T17:01:45;7.30;99.90